createdAt,value
2018-11-03T00:02:04.365Z,3.22
2018-11-03T00:04:31.829Z,4.13
2018-11-03T00:06:59.302Z,3.27
2018-11-03T00:09:26.792Z,3.43
2018-11-03T00:11:55.026Z,3.13
2018-11-03T00:14:22.483Z,3.13
2018-11-03T00:16:49.980Z,3.43
2018-11-03T00:19:18.271Z,3.23
2018-11-03T00:21:46.515Z,3.57
2018-11-03T00:24:13.996Z,3.63
2018-11-03T00:26:41.468Z,3.10
2018-11-03T00:29:09.004Z,3.20
2018-11-03T00:31:36.596Z,3.47
2018-11-03T00:34:04.825Z,3.00
2018-11-03T00:36:32.279Z,3.33
2018-11-03T00:38:59.793Z,3.33
2018-11-03T00:41:27.346Z,3.83
2018-11-03T00:43:54.922Z,2.90
2018-11-03T00:46:22.612Z,3.00
2018-11-03T00:48:50.085Z,2.77
2018-11-03T00:51:17.608Z,3.10
2018-11-03T00:53:45.171Z,3.10
2018-11-03T00:56:13.398Z,3.43
2018-11-03T00:58:40.867Z,2.93
2018-11-03T01:01:08.389Z,3.47
2018-11-03T01:03:36.660Z,3.30
2018-11-03T01:06:04.219Z,3.20
2018-11-03T01:08:31.799Z,3.27
2018-11-03T01:11:00.882Z,3.40
2018-11-03T01:13:28.336Z,3.20
2018-11-03T01:15:55.799Z,4.07
2018-11-03T01:18:23.262Z,3.20
2018-11-03T01:20:50.844Z,2.77
2018-11-03T01:23:18.301Z,3.10
2018-11-03T01:25:45.964Z,3.67
2018-11-03T01:28:14.241Z,2.97
2018-11-03T01:30:41.817Z,2.73
2018-11-03T01:33:10.044Z,3.00
2018-11-03T01:35:37.530Z,3.40
2018-11-03T01:38:05.018Z,2.97
2018-11-03T01:40:32.567Z,3.50
2018-11-03T01:43:00.042Z,3.23
2018-11-03T01:45:27.510Z,3.10
2018-11-03T01:47:54.963Z,3.30
2018-11-03T01:50:23.925Z,3.20
2018-11-03T01:52:51.388Z,3.00
2018-11-03T01:55:18.859Z,3.30
2018-11-03T01:57:46.346Z,2.90
2018-11-03T02:00:14.577Z,2.70
2018-11-03T02:02:42.056Z,3.20
2018-11-03T02:05:09.519Z,2.97
2018-11-03T02:07:36.976Z,2.27
2018-11-03T02:10:05.049Z,2.67
2018-11-03T02:12:32.533Z,2.93
2018-11-03T02:15:00.014Z,2.67
2018-11-03T02:17:28.357Z,2.80
2018-11-03T02:19:55.741Z,2.60
2018-11-03T02:22:23.313Z,2.73
2018-11-03T02:24:51.591Z,2.93
2018-11-03T02:27:19.051Z,2.47
2018-11-03T02:29:46.619Z,2.67
2018-11-03T02:32:14.081Z,2.50
2018-11-03T02:34:41.651Z,2.60
2018-11-03T02:37:09.871Z,2.08
2018-11-03T02:39:37.347Z,2.50
2018-11-03T02:42:04.833Z,2.40
2018-11-03T02:44:32.283Z,2.60
2018-11-03T02:46:59.735Z,2.30
2018-11-03T02:49:27.226Z,2.50
2018-11-03T02:51:55.112Z,2.57
2018-11-03T02:54:23.366Z,2.80
2018-11-03T02:56:50.822Z,2.97
2018-11-03T02:59:18.399Z,2.23
2018-11-03T03:01:45.971Z,2.47
2018-11-03T03:04:13.535Z,2.50
2018-11-03T03:06:41.004Z,2.43
2018-11-03T03:09:08.558Z,2.43
2018-11-03T03:11:36.025Z,2.27
2018-11-03T03:14:04.721Z,2.45
2018-11-03T03:16:32.263Z,2.37
2018-11-03T03:18:59.727Z,2.60
2018-11-03T03:21:27.188Z,2.20
2018-11-03T03:23:54.633Z,2.30
2018-11-03T03:26:22.873Z,2.60
2018-11-03T03:28:51.171Z,2.57
2018-11-03T03:31:18.547Z,2.77
2018-11-03T03:33:46.011Z,3.23
2018-11-03T03:36:13.492Z,2.70
2018-11-03T03:38:41.065Z,2.40
2018-11-03T03:41:08.587Z,2.80
2018-11-03T03:43:36.057Z,2.93
2018-11-03T03:46:03.758Z,2.53
2018-11-03T03:48:32.726Z,3.37
2018-11-03T03:51:00.180Z,3.13
2018-11-03T03:53:28.493Z,3.07
2018-11-03T03:55:56.056Z,2.87
2018-11-03T03:58:23.635Z,2.90
2018-11-03T04:00:51.088Z,3.20
2018-11-03T04:03:18.543Z,2.67
2018-11-03T04:05:46.016Z,2.83
2018-11-03T04:08:13.586Z,3.10
2018-11-03T04:10:41.810Z,3.50
2018-11-03T04:13:09.276Z,3.33
2018-11-03T04:15:36.783Z,2.93
2018-11-03T04:18:04.406Z,3.27
2018-11-03T04:20:31.864Z,3.47
2018-11-03T04:22:59.325Z,3.03
2018-11-03T04:25:26.835Z,3.07
2018-11-03T04:27:54.301Z,3.00
2018-11-03T04:30:23.284Z,3.27
2018-11-03T04:32:50.751Z,3.00
2018-11-03T04:35:18.196Z,2.80
2018-11-03T04:37:45.656Z,2.97
2018-11-03T04:40:13.997Z,2.90
2018-11-03T04:42:41.515Z,2.87
2018-11-03T04:45:08.985Z,3.23
2018-11-03T04:47:36.543Z,2.83
2018-11-03T04:50:04.214Z,3.08
2018-11-03T04:52:33.187Z,2.93
2018-11-03T04:55:00.685Z,3.23
2018-11-03T04:57:28.143Z,3.47
2018-11-03T04:59:55.572Z,2.90
2018-11-03T05:02:23.024Z,3.27
2018-11-03T05:04:50.472Z,3.50
2018-11-03T05:07:17.934Z,3.60
2018-11-03T05:09:45.608Z,3.40
2018-11-03T05:12:13.837Z,3.63
2018-11-03T05:14:41.297Z,3.40
2018-11-03T05:17:09.048Z,3.93
2018-11-03T05:19:36.620Z,3.67
2018-11-03T05:22:04.078Z,3.37
2018-11-03T05:24:32.531Z,3.77
2018-11-03T05:27:00.004Z,3.73
2018-11-03T05:29:27.457Z,3.47
2018-11-03T05:31:54.931Z,3.70
2018-11-03T05:34:22.395Z,3.93
2018-11-03T05:36:49.848Z,3.67
2018-11-03T05:39:17.311Z,3.70
2018-11-03T05:41:44.797Z,3.47
2018-11-03T05:44:12.925Z,4.03
2018-11-03T05:46:40.511Z,3.73
2018-11-03T05:49:08.920Z,4.33
2018-11-03T05:51:36.496Z,3.70
2018-11-03T05:54:04.718Z,4.00
2018-11-03T05:56:32.193Z,4.33
2018-11-03T05:58:59.757Z,4.07
2018-11-03T06:01:27.164Z,3.87
2018-11-03T06:03:54.723Z,3.70
2018-11-03T06:06:22.970Z,4.30
2018-11-03T06:08:50.540Z,3.93
2018-11-03T06:11:18.022Z,4.40
2018-11-03T06:13:46.249Z,4.40
2018-11-03T06:16:13.761Z,3.90
2018-11-03T06:18:41.330Z,3.97
2018-11-03T06:21:09.556Z,4.17
2018-11-03T06:23:37.154Z,4.47
2018-11-03T06:26:04.569Z,4.27
2018-11-03T06:28:32.793Z,4.47
2018-11-03T06:31:00.254Z,3.80
2018-11-03T06:33:27.761Z,4.13
2018-11-03T06:35:55.292Z,3.63
2018-11-03T06:38:22.816Z,3.93
2018-11-03T06:40:50.273Z,3.97
2018-11-03T06:43:17.743Z,4.40
2018-11-03T06:45:45.239Z,4.40
2018-11-03T06:48:13.519Z,4.37
2018-11-03T06:50:41.019Z,4.77
2018-11-03T06:53:08.455Z,4.47
2018-11-03T06:55:36.011Z,4.87
2018-11-03T06:58:04.793Z,5.10
2018-11-03T07:00:32.263Z,4.67
2018-11-03T07:02:59.719Z,5.47
2018-11-03T07:05:27.184Z,4.93
2018-11-03T07:07:54.653Z,5.33
2018-11-03T07:10:22.183Z,4.53
2018-11-03T07:12:49.725Z,5.13
2018-11-03T07:15:17.057Z,4.45
2018-11-03T07:17:44.511Z,3.83
2018-11-03T07:20:12.139Z,5.00
2018-11-03T07:22:39.580Z,5.20
2018-11-03T07:25:07.115Z,4.47
2018-11-03T07:27:35.359Z,5.37
2018-11-03T07:30:03.728Z,4.97
2018-11-03T07:32:31.191Z,4.93
2018-11-03T07:34:58.673Z,5.43
2018-11-03T07:37:26.241Z,4.60
2018-11-03T07:39:53.799Z,5.60
2018-11-03T07:42:21.317Z,5.33
2018-11-03T07:44:48.755Z,4.93
2018-11-03T07:47:16.233Z,4.80
2018-11-03T07:49:43.777Z,5.17
2018-11-03T07:52:11.280Z,5.33
2018-11-03T07:54:38.819Z,6.00
2018-11-03T07:57:06.214Z,6.77
2018-11-03T07:59:33.679Z,5.97
2018-11-03T08:02:01.152Z,5.47
2018-11-03T08:04:28.940Z,5.87
2018-11-03T08:06:56.392Z,4.03
2018-11-03T08:09:23.881Z,4.80
2018-11-03T08:11:51.629Z,5.37
2018-11-03T08:14:19.190Z,5.50
2018-11-03T08:16:46.753Z,4.10
2018-11-03T08:19:14.486Z,5.83
2018-11-03T08:21:42.000Z,5.70
2018-11-03T08:24:09.553Z,4.60
2018-11-03T08:26:37.113Z,5.90
2018-11-03T08:29:04.693Z,6.03
2018-11-03T08:31:32.341Z,6.07
2018-11-03T08:34:00.534Z,6.13
2018-11-03T08:36:28.010Z,5.97
2018-11-03T08:38:56.267Z,5.40
2018-11-03T08:41:23.737Z,5.80
2018-11-03T08:43:51.987Z,5.80
2018-11-03T08:46:19.452Z,5.53
2018-11-03T08:48:47.005Z,5.90
2018-11-03T08:51:14.374Z,5.60
2018-11-03T08:53:41.875Z,6.03
2018-11-03T08:56:09.349Z,6.62
2018-11-03T08:58:37.600Z,6.53
2018-11-03T09:01:05.071Z,6.17
2018-11-03T09:03:32.634Z,6.53
2018-11-03T09:06:00.909Z,6.07
2018-11-03T09:08:28.474Z,6.90
2018-11-03T09:10:55.946Z,6.03
2018-11-03T09:13:23.493Z,6.90
2018-11-03T09:15:50.956Z,6.50
2018-11-03T09:18:18.411Z,6.17
2018-11-03T09:20:46.185Z,6.57
2018-11-03T09:23:14.467Z,7.00
2018-11-03T09:25:41.926Z,5.73
2018-11-03T09:28:10.166Z,6.80
2018-11-03T09:30:37.641Z,7.43
2018-11-03T09:33:05.126Z,6.00
2018-11-03T09:35:32.597Z,7.27
2018-11-03T09:38:00.161Z,6.57
2018-11-03T09:40:28.460Z,5.97
2018-11-03T09:42:56.783Z,6.57
2018-11-03T09:45:24.300Z,6.27
2018-11-03T09:47:51.788Z,6.57
2018-11-03T09:50:19.295Z,6.70
2018-11-03T09:52:46.755Z,5.80
2018-11-03T09:55:14.257Z,5.97
2018-11-03T09:57:42.492Z,6.00
2018-11-03T10:00:09.959Z,6.90
2018-11-03T10:02:37.649Z,7.10
2018-11-03T10:05:05.221Z,6.30
2018-11-03T10:07:33.506Z,6.30
2018-11-03T10:10:01.787Z,5.97
2018-11-03T10:12:29.267Z,7.43
2018-11-03T10:14:57.494Z,6.23
2018-11-03T10:17:24.985Z,6.07
2018-11-03T10:19:52.473Z,6.77
2018-11-03T10:22:19.990Z,7.43
2018-11-03T10:24:47.429Z,6.20
2018-11-03T10:27:14.879Z,7.07
2018-11-03T10:29:42.359Z,6.27
2018-11-03T10:32:09.839Z,6.40
2018-11-03T10:34:37.292Z,5.93
2018-11-03T10:37:04.764Z,6.77
2018-11-03T10:39:32.235Z,5.80
2018-11-03T10:42:01.234Z,7.40
2018-11-03T10:44:28.738Z,5.77
2018-11-03T10:46:57.077Z,5.27
2018-11-03T10:49:24.557Z,5.97
2018-11-03T10:51:53.112Z,6.10
2018-11-03T10:54:20.585Z,5.83
2018-11-03T10:56:48.168Z,6.37
2018-11-03T10:59:15.971Z,6.23
2018-11-03T11:01:49.186Z,6.03
2018-11-03T11:07:19.050Z,8.75
2018-11-03T11:09:46.487Z,7.17
2018-11-03T11:12:13.955Z,7.30
2018-11-03T11:14:41.411Z,6.80
2018-11-03T11:17:09.186Z,7.47
2018-11-03T11:19:36.664Z,6.63
2018-11-03T11:22:04.884Z,5.93
2018-11-03T11:24:32.407Z,5.83
2018-11-03T11:26:59.865Z,7.43
2018-11-03T11:29:27.324Z,7.23
2018-11-03T11:31:54.885Z,6.27
2018-11-03T11:34:22.456Z,6.50
2018-11-03T11:36:50.003Z,6.23
2018-11-03T11:39:17.479Z,7.53
2018-11-03T11:41:45.719Z,6.90
2018-11-03T11:44:13.197Z,6.97
2018-11-03T11:46:40.686Z,6.53
2018-11-03T11:49:08.923Z,6.47
2018-11-03T11:51:36.388Z,6.60
2018-11-03T11:54:03.862Z,6.57
2018-11-03T11:56:31.318Z,7.43
2018-11-03T11:58:58.774Z,7.13
2018-11-03T12:01:26.243Z,6.30
2018-11-03T12:03:53.716Z,6.97
2018-11-03T12:06:21.288Z,6.67
2018-11-03T12:08:48.774Z,7.50
2018-11-03T12:11:17.038Z,6.70
2018-11-03T12:13:44.598Z,6.40
2018-11-03T12:16:12.142Z,5.53
2018-11-03T12:18:40.337Z,5.13
2018-11-03T12:21:07.801Z,4.53
2018-11-03T12:23:35.361Z,4.17
2018-11-03T12:26:02.937Z,4.20
2018-11-03T12:28:30.444Z,4.57
2018-11-03T12:30:57.898Z,4.70
2018-11-03T12:33:25.363Z,4.20
2018-11-03T12:35:52.847Z,4.33
2018-11-03T12:38:20.312Z,3.97
2018-11-03T12:40:47.811Z,3.60
2018-11-03T12:43:15.226Z,4.47
2018-11-03T12:45:42.688Z,4.23
2018-11-03T12:48:10.240Z,3.90
2018-11-03T12:50:37.755Z,4.00
2018-11-03T12:53:05.312Z,4.03
2018-11-03T12:55:32.826Z,3.90
2018-11-03T12:58:00.291Z,4.17
2018-11-03T13:00:27.855Z,3.80
2018-11-03T13:02:55.315Z,4.07
2018-11-03T13:05:22.767Z,4.20
2018-11-03T13:07:50.224Z,4.10
2018-11-03T13:10:17.676Z,4.07
2018-11-03T13:12:45.912Z,3.97
2018-11-03T13:15:13.363Z,3.77
2018-11-03T13:17:40.846Z,4.33
2018-11-03T13:20:08.296Z,4.43
2018-11-03T13:22:35.775Z,4.00
2018-11-03T13:25:04.451Z,4.20
2018-11-03T13:27:32.019Z,4.10
2018-11-03T13:29:59.467Z,3.93
2018-11-03T13:32:26.957Z,4.07
2018-11-03T13:34:55.248Z,3.87
2018-11-03T13:37:22.657Z,4.07
2018-11-03T13:39:50.107Z,3.63
2018-11-03T13:42:17.612Z,3.33
2018-11-03T13:44:45.380Z,3.80
2018-11-03T13:47:12.849Z,3.60
2018-11-03T13:49:40.306Z,3.13
2018-11-03T13:52:07.860Z,3.83
2018-11-03T13:54:35.325Z,3.60
2018-11-03T13:57:03.577Z,4.27
2018-11-03T13:59:31.067Z,4.10
2018-11-03T14:01:58.638Z,4.60
2018-11-03T14:04:26.083Z,4.57
2018-11-03T14:06:53.543Z,3.77
2018-11-03T14:09:21.029Z,4.43
2018-11-03T14:11:48.513Z,4.97
2018-11-03T14:14:16.723Z,4.60
2018-11-03T14:16:44.222Z,4.80
2018-11-03T14:19:11.783Z,4.87
2018-11-03T14:21:39.259Z,5.30
2018-11-03T14:24:07.748Z,4.70
2018-11-03T14:26:35.209Z,5.60
2018-11-03T14:29:03.014Z,4.73
2018-11-03T14:31:30.415Z,4.67
2018-11-03T14:33:57.891Z,5.80
2018-11-03T14:36:25.555Z,6.27
2018-11-03T14:38:52.927Z,5.67
2018-11-03T14:41:20.380Z,5.40
2018-11-03T14:43:47.838Z,5.83
2018-11-03T14:46:15.435Z,5.57
2018-11-03T14:48:42.762Z,6.33
2018-11-03T14:51:10.361Z,6.07
2018-11-03T14:53:38.435Z,5.27
2018-11-03T14:56:06.670Z,5.00
2018-11-03T14:58:34.432Z,5.87
2018-11-03T15:01:01.923Z,7.00
2018-11-03T15:03:29.396Z,6.30
2018-11-03T15:05:56.844Z,5.60
2018-11-03T15:08:24.413Z,6.17
2018-11-03T15:10:51.963Z,6.57
2018-11-03T15:13:19.409Z,6.47
2018-11-03T15:15:46.902Z,6.13
2018-11-03T15:18:14.363Z,5.90
2018-11-03T15:20:41.875Z,5.93
2018-11-03T15:23:09.351Z,5.80
2018-11-03T15:25:36.812Z,6.43
2018-11-03T15:28:04.279Z,6.20
2018-11-03T15:30:31.735Z,5.83
2018-11-03T15:32:59.181Z,4.93
2018-11-03T15:35:26.653Z,5.17
2018-11-03T15:37:54.153Z,6.63
2018-11-03T15:40:22.135Z,5.93
2018-11-03T15:42:49.695Z,6.50
2018-11-03T15:45:17.239Z,6.67
2018-11-03T15:47:44.854Z,6.03
2018-11-03T15:50:12.385Z,6.33
2018-11-03T15:52:39.846Z,6.47
2018-11-03T15:55:07.299Z,6.83
2018-11-03T15:57:35.083Z,6.30
2018-11-03T16:00:02.539Z,6.60
2018-11-03T16:02:30.029Z,6.03
2018-11-03T16:04:58.263Z,6.87
2018-11-03T16:07:25.726Z,6.30
2018-11-03T16:09:54.431Z,6.30
2018-11-03T16:12:21.885Z,6.47
2018-11-03T16:14:49.329Z,6.37
2018-11-03T16:17:17.113Z,6.70
2018-11-03T16:19:44.603Z,6.13
2018-11-03T16:22:12.377Z,7.67
2018-11-03T16:24:40.599Z,6.53
2018-11-03T16:27:08.072Z,6.93
2018-11-03T16:29:35.553Z,6.83
2018-11-03T16:32:03.968Z,7.13
2018-11-03T16:34:31.408Z,7.10
2018-11-03T16:36:59.627Z,6.37
2018-11-03T16:39:27.108Z,7.00
2018-11-03T16:41:54.565Z,7.13
2018-11-03T16:44:22.028Z,5.43
2018-11-03T16:46:49.530Z,7.37
2018-11-03T16:49:16.983Z,7.00
2018-11-03T16:51:44.447Z,6.47
2018-11-03T16:54:11.914Z,5.77
2018-11-03T16:56:39.372Z,5.57
2018-11-03T16:59:06.940Z,6.27
2018-11-03T17:01:34.383Z,7.30
2018-11-03T17:04:01.840Z,6.90
2018-11-03T17:06:29.315Z,7.30
2018-11-03T17:08:56.771Z,7.00
2018-11-03T17:11:24.229Z,8.03
2018-11-03T17:13:51.709Z,7.17
2018-11-03T17:16:19.162Z,7.07
2018-11-03T17:18:46.810Z,7.17
2018-11-03T17:21:14.195Z,7.87
2018-11-03T17:23:41.666Z,7.37
2018-11-03T17:26:09.899Z,7.82
2018-11-03T17:28:37.409Z,7.37
2018-11-03T17:31:04.978Z,8.70
2018-11-03T17:33:32.436Z,9.67
2018-11-03T17:35:59.890Z,8.03
2018-11-03T17:38:27.455Z,9.67
2018-11-03T17:40:54.917Z,8.90
2018-11-03T17:43:22.475Z,8.40
2018-11-03T17:45:49.927Z,9.23
2018-11-03T17:48:17.404Z,8.47
2018-11-03T17:50:44.866Z,8.93
2018-11-03T17:53:12.433Z,9.00
2018-11-03T17:55:39.987Z,8.97
2018-11-03T17:58:07.557Z,8.23
2018-11-03T18:00:35.108Z,8.07
2018-11-03T18:03:02.463Z,8.57
2018-11-03T18:05:29.949Z,8.33
2018-11-03T18:07:57.503Z,8.83
2018-11-03T18:10:25.269Z,8.03
2018-11-03T18:12:52.800Z,8.33
2018-11-03T18:15:20.184Z,8.27
2018-11-03T18:17:47.640Z,7.80
2018-11-03T18:20:15.407Z,8.60
2018-11-03T18:22:42.863Z,7.50
2018-11-03T18:25:10.352Z,7.40
2018-11-03T18:27:37.815Z,7.53
2018-11-03T18:30:05.375Z,8.27
2018-11-03T18:32:32.831Z,7.80
2018-11-03T18:35:00.315Z,8.00
2018-11-03T18:37:27.777Z,8.80
2018-11-03T18:39:56.736Z,8.20
2018-11-03T18:42:24.191Z,8.03
2018-11-03T18:44:51.669Z,7.27
2018-11-03T18:47:19.144Z,8.47
2018-11-03T18:49:46.707Z,7.60
2018-11-03T18:52:14.172Z,8.27
2018-11-03T18:54:41.741Z,7.97
2018-11-03T18:57:09.499Z,7.73
2018-11-03T18:59:36.947Z,8.50
2018-11-03T19:02:04.428Z,8.50
2018-11-03T19:04:31.889Z,8.03
2018-11-03T19:06:59.338Z,8.40
2018-11-03T19:09:26.890Z,7.00
2018-11-03T19:11:54.385Z,8.63
2018-11-03T19:14:21.848Z,8.77
2018-11-03T19:16:49.397Z,8.03
2018-11-03T19:19:16.873Z,8.43
2018-11-03T19:21:44.329Z,8.27
2018-11-03T19:24:11.851Z,8.90
2018-11-03T19:26:39.310Z,8.60
2018-11-03T19:29:06.773Z,8.23
2018-11-03T19:31:34.231Z,8.03
2018-11-03T19:34:01.691Z,8.77
2018-11-03T19:36:29.161Z,8.70
2018-11-03T19:38:56.611Z,7.97
2018-11-03T19:41:24.169Z,9.57
2018-11-03T19:43:51.683Z,8.73
2018-11-03T19:46:19.911Z,8.87
2018-11-03T19:48:47.439Z,9.17
2018-11-03T19:51:14.896Z,9.07
2018-11-03T19:53:42.381Z,9.67
2018-11-03T19:56:10.627Z,9.50
2018-11-03T19:58:38.103Z,8.40
2018-11-03T20:01:05.568Z,8.30
2018-11-03T20:03:33.144Z,9.07
2018-11-03T20:06:01.298Z,8.60
2018-11-03T20:08:28.740Z,7.30
2018-11-03T20:10:56.408Z,9.30
2018-11-03T20:13:23.875Z,9.17
2018-11-03T20:15:51.338Z,9.30
2018-11-03T20:18:18.918Z,9.83
2018-11-03T20:20:46.377Z,9.27
2018-11-03T20:23:13.948Z,10.10
2018-11-03T20:25:41.410Z,8.90
2018-11-03T20:28:10.376Z,9.20
2018-11-03T20:30:37.859Z,9.30
2018-11-03T20:33:05.638Z,9.17
2018-11-03T20:35:33.090Z,9.83
2018-11-03T20:38:00.651Z,10.20
2018-11-03T20:40:28.123Z,10.73
2018-11-03T20:42:55.683Z,10.33
2018-11-03T20:45:23.139Z,10.23
2018-11-03T20:47:50.604Z,9.37
2018-11-03T20:50:18.159Z,9.97
2018-11-03T20:52:45.629Z,7.97
2018-11-03T20:55:13.113Z,7.33
2018-11-03T20:57:40.558Z,9.13
2018-11-03T21:00:08.773Z,8.93
2018-11-03T21:02:36.548Z,9.07
2018-11-03T21:05:03.992Z,9.57
2018-11-03T21:07:31.433Z,9.03
2018-11-03T21:09:59.657Z,9.03
2018-11-03T21:12:27.128Z,9.80
2018-11-03T21:14:54.581Z,9.57
2018-11-03T21:17:22.041Z,10.20
2018-11-03T21:19:49.536Z,10.63
2018-11-03T21:22:16.993Z,10.03
2018-11-03T21:24:44.450Z,12.13
2018-11-03T21:27:11.905Z,12.43
2018-11-03T21:29:40.131Z,13.30
2018-11-03T21:32:08.380Z,12.23
2018-11-03T21:34:35.809Z,12.77
2018-11-03T21:37:04.293Z,11.23
2018-11-03T21:39:31.738Z,10.60
2018-11-03T21:41:59.205Z,10.27
2018-11-03T21:44:26.665Z,8.93
2018-11-03T21:46:54.225Z,9.13
2018-11-03T21:49:21.580Z,8.17
2018-11-03T21:51:49.294Z,8.87
2018-11-03T21:54:16.754Z,9.47
2018-11-03T21:56:44.201Z,9.07
2018-11-03T21:59:11.674Z,8.23
2018-11-03T22:01:39.137Z,10.07
2018-11-03T22:04:06.588Z,9.43
2018-11-03T22:06:34.059Z,8.97
2018-11-03T22:09:01.513Z,9.83
2018-11-03T22:11:29.740Z,9.53
2018-11-03T22:13:57.980Z,10.27
2018-11-03T22:16:25.454Z,9.33
2018-11-03T22:18:52.903Z,9.47
2018-11-03T22:21:20.386Z,9.70
2018-11-03T22:23:47.832Z,9.37
2018-11-03T22:26:15.634Z,9.87
2018-11-03T22:28:43.084Z,10.93
2018-11-03T22:31:10.537Z,9.97
2018-11-03T22:33:38.008Z,10.83
2018-11-03T22:36:06.227Z,9.97
2018-11-03T22:38:34.445Z,10.57
2018-11-03T22:41:01.915Z,9.60
2018-11-03T22:43:29.393Z,10.93
2018-11-03T22:45:56.858Z,9.57
2018-11-03T22:48:24.328Z,10.73
2018-11-03T22:50:52.077Z,10.27
2018-11-03T22:53:19.513Z,8.97
2018-11-03T22:55:46.976Z,9.90
2018-11-03T22:58:14.449Z,9.83
2018-11-03T23:00:41.929Z,10.73
2018-11-03T23:03:09.384Z,10.20
2018-11-03T23:05:36.857Z,9.73
2018-11-03T23:08:05.082Z,10.40
2018-11-03T23:10:33.308Z,9.60
2018-11-03T23:13:01.088Z,11.03
2018-11-03T23:15:29.253Z,10.83
2018-11-03T23:17:56.708Z,10.43
2018-11-03T23:20:24.173Z,8.77
2018-11-03T23:22:51.613Z,11.63
2018-11-03T23:25:19.085Z,8.77
2018-11-03T23:27:46.792Z,10.33
2018-11-03T23:30:14.338Z,10.53
2018-11-03T23:32:42.469Z,9.37
2018-11-03T23:35:10.717Z,9.03
2018-11-03T23:37:38.189Z,9.50
2018-11-03T23:40:05.661Z,10.30
2018-11-03T23:42:33.132Z,9.10
2018-11-03T23:45:01.077Z,10.80
2018-11-03T23:47:28.561Z,10.90
2018-11-03T23:49:56.034Z,11.17
2018-11-03T23:52:23.499Z,11.03
2018-11-03T23:54:51.731Z,9.93
2018-11-03T23:57:19.237Z,11.27
2018-11-03T23:59:46.696Z,10.10
